Amsterdam, Netherlands

11:08 AM CET on December 03, 2016 (GMT +0100)
Aalsmeerderdijk | | Change Station

Elev -6 ft 52.28 °N, 4.76 °E | Updated 9 minutes ago

Mostly Cloudy
Mostly Cloudy
40.8 °F
Feels Like 41 °F
N
0.6
Wind Variable Wind from NNW
Gusts 1.2 mph

Today
High -- | Low -- °F
--% Chance of Precip.
Yesterday
High -- | Low -- °F
Precip. -- in
Pressure 30.33 in
Visibility 6.2 miles
Clouds Mostly Cloudy 4000 ft
Windchill 41 °F
Dew Point 37 °F
Humidity 86%
Rainfall 0.00 in
Snow Depth Not available.
8:31 AM 4:30 PM
Waxing Crescent, 14% visible
METAR EHAM 030955Z 03003KT 010V070 9999 BKN040 04/03 Q1027 NOSIG
Pressure 30.33 in
Visibility 6.2 miles
Clouds Mostly Cloudy 4000 ft
Windchill 41 °F
Dew Point 37 °F
Humidity 86%
Rainfall 0.00 in
Snow Depth Not available.
8:31 AM 4:30 PM
Waxing Crescent, 14% visible
METAR EHAM 030955Z 03003KT 010V070 9999 BKN040 04/03 Q1027 NOSIG

10-Day Weather Forecast

×

Almanac

Astronomy

Dec. 03, 2016 Rise Set
Actual Time
Civil Twilight
Nautical Twilight
Astronomical Twilight
Moon
Length of Visible Light
Length of Day
Tomorrow will be .
, % of the Moon is Illuminated

Today's Extremes

Country Highs Country Lows

Community

WunderPhotos

Upload Photos

1,955,434 photos uploaded!

WunderBlog® & News

Nearby

Air Quality

  Air Quality AQ Index Pollutant
Not available.

Snow Depth

Station Depth Elevation

Earthquake Activity

City Distance Mag. Time & Date
Minimum magnitude displayed is 2.5.

Coastal Water Temperatures

Place Temperature

Stations

Nearby Weather Stations

Station Location Temp. Windchill Dew Point Humidity Wind Precip. Elev Updated Type